createdAt,value
2017-11-19T00:02:20.108Z,12.25
2017-11-19T00:04:46.764Z,13.70
2017-11-19T00:07:13.418Z,12.80
2017-11-19T00:09:40.094Z,15.43
2017-11-19T00:12:06.734Z,18.12
2017-11-19T00:14:33.665Z,16.23
2017-11-19T00:17:00.812Z,14.50
2017-11-19T00:19:27.649Z,16.42
2017-11-19T00:21:54.516Z,17.77
2017-11-19T00:24:21.420Z,17.98
2017-11-19T00:26:48.450Z,16.60
2017-11-19T00:29:15.554Z,15.60
2017-11-19T00:31:42.694Z,15.40
2017-11-19T00:34:09.574Z,17.20
2017-11-19T00:36:36.633Z,20.90
2017-11-19T00:39:03.523Z,19.42
2017-11-19T00:41:30.505Z,21.23
2017-11-19T00:43:57.330Z,22.25
2017-11-19T00:46:24.205Z,22.37
2017-11-19T00:48:51.028Z,23.70
2017-11-19T00:51:17.844Z,21.62
2017-11-19T00:53:44.715Z,23.10
2017-11-19T00:56:11.558Z,27.20
2017-11-19T00:58:38.414Z,23.00
2017-11-19T01:01:05.531Z,22.20
2017-11-19T01:03:32.415Z,24.37
2017-11-19T01:05:59.240Z,24.83
2017-11-19T01:08:26.366Z,25.83
2017-11-19T01:10:53.215Z,22.80
2017-11-19T01:13:20.072Z,20.67
2017-11-19T01:15:47.197Z,22.62
2017-11-19T01:18:14.024Z,24.27
2017-11-19T01:20:41.107Z,21.20
2017-11-19T01:23:07.993Z,29.87
2017-11-19T01:25:34.854Z,23.10
2017-11-19T01:28:01.714Z,23.58
2017-11-19T01:30:28.566Z,28.95
2017-11-19T01:32:55.718Z,24.87
2017-11-19T01:35:22.582Z,23.05
2017-11-19T01:37:49.520Z,24.95
2017-11-19T01:40:16.378Z,23.70
2017-11-19T01:42:43.502Z,21.17
2017-11-19T01:45:10.370Z,27.17
2017-11-19T01:47:37.199Z,22.90
2017-11-19T01:50:04.070Z,23.40
2017-11-19T01:52:31.000Z,20.60
2017-11-19T01:54:57.856Z,25.03
2017-11-19T01:57:24.717Z,28.37
2017-11-19T01:59:51.599Z,18.33
2017-11-19T02:02:24.593Z,22.70
2017-11-19T02:04:51.715Z,26.12
2017-11-19T02:07:18.894Z,21.23
2017-11-19T02:09:45.749Z,26.83
2017-11-19T02:12:12.885Z,29.83
2017-11-19T02:14:39.707Z,22.35
2017-11-19T02:17:06.561Z,22.87
2017-11-19T02:19:33.436Z,29.23
2017-11-19T02:22:00.272Z,27.55
2017-11-19T02:24:27.113Z,24.15
2017-11-19T02:26:53.961Z,24.05
2017-11-19T02:29:20.810Z,27.52
2017-11-19T02:31:47.937Z,31.92
2017-11-19T02:34:14.827Z,25.45
2017-11-19T02:36:41.700Z,30.48
2017-11-19T02:39:08.520Z,25.40
2017-11-19T02:41:35.387Z,23.60
2017-11-19T02:44:02.462Z,24.55
2017-11-19T02:46:29.610Z,23.10
2017-11-19T02:48:56.442Z,26.23
2017-11-19T02:51:23.314Z,24.90
2017-11-19T02:53:50.151Z,24.73
2017-11-19T02:56:16.989Z,24.50
2017-11-19T02:58:44.133Z,25.58
2017-11-19T03:01:10.952Z,21.83
2017-11-19T03:03:37.810Z,20.00
2017-11-19T03:06:04.694Z,23.62
2017-11-19T03:08:31.603Z,22.90
2017-11-19T03:10:58.478Z,23.20
2017-11-19T03:13:25.342Z,28.55
2017-11-19T03:15:52.221Z,22.70
2017-11-19T03:18:19.060Z,24.65
2017-11-19T03:20:45.911Z,19.87
2017-11-19T03:23:12.729Z,16.73
2017-11-19T03:25:39.820Z,21.45
2017-11-19T03:28:06.683Z,22.13
2017-11-19T03:30:33.526Z,20.48
2017-11-19T03:33:00.368Z,20.10
2017-11-19T03:35:27.233Z,18.73
2017-11-19T03:37:54.068Z,22.53
2017-11-19T03:40:21.192Z,26.10
2017-11-19T03:42:48.009Z,22.17
2017-11-19T03:45:15.184Z,27.62
2017-11-19T03:47:42.338Z,23.38
2017-11-19T03:50:09.152Z,23.05
2017-11-19T03:52:36.333Z,22.33
2017-11-19T03:55:03.170Z,24.00
2017-11-19T03:57:30.030Z,25.80
2017-11-19T03:59:57.162Z,18.98
2017-11-19T04:02:24.309Z,24.85
2017-11-19T04:04:51.457Z,21.62
2017-11-19T04:07:18.318Z,26.17
2017-11-19T04:09:45.206Z,25.12
2017-11-19T04:12:12.029Z,22.65
2017-11-19T04:14:39.143Z,21.12
2017-11-19T04:17:06.290Z,18.52
2017-11-19T04:19:33.139Z,22.08
2017-11-19T04:22:00.285Z,18.53
2017-11-19T04:24:27.154Z,22.00
2017-11-19T04:26:53.976Z,18.58
2017-11-19T04:29:20.833Z,21.15
2017-11-19T04:31:47.701Z,21.73
2017-11-19T04:34:14.805Z,21.17
2017-11-19T04:36:41.964Z,21.75
2017-11-19T04:39:08.870Z,19.77
2017-11-19T04:41:35.954Z,22.40
2017-11-19T04:44:03.100Z,21.10
2017-11-19T04:46:29.938Z,20.00
2017-11-19T04:48:57.099Z,20.90
2017-11-19T04:51:23.927Z,17.42
2017-11-19T04:53:50.775Z,20.92
2017-11-19T04:56:17.650Z,27.02
2017-11-19T04:58:44.464Z,22.58
2017-11-19T05:01:11.298Z,24.58
2017-11-19T05:03:38.150Z,21.60
2017-11-19T05:06:05.306Z,18.15
2017-11-19T05:08:32.204Z,19.48
2017-11-19T05:10:59.265Z,21.85
2017-11-19T05:13:26.340Z,21.27
2017-11-19T05:15:53.181Z,22.23
2017-11-19T05:18:20.232Z,22.60
2017-11-19T05:20:47.071Z,16.90
2017-11-19T05:23:13.917Z,23.17
2017-11-19T05:25:40.724Z,19.40
2017-11-19T05:28:07.575Z,19.85
2017-11-19T05:30:34.765Z,19.12
2017-11-19T05:33:01.586Z,23.85
2017-11-19T05:35:28.755Z,20.30
2017-11-19T05:37:55.630Z,24.27
2017-11-19T05:40:22.472Z,21.73
2017-11-19T05:42:49.584Z,22.48
2017-11-19T05:45:16.742Z,19.23
2017-11-19T05:47:43.818Z,19.47
2017-11-19T05:50:10.641Z,21.80
2017-11-19T05:52:37.553Z,19.42
2017-11-19T05:55:04.413Z,22.37
2017-11-19T05:57:31.574Z,20.40
2017-11-19T05:59:58.723Z,25.10
2017-11-19T06:02:25.868Z,19.87
2017-11-19T06:04:52.692Z,28.92
2017-11-19T06:07:19.526Z,23.60
2017-11-19T06:09:46.340Z,27.95
2017-11-19T06:12:13.182Z,23.02
2017-11-19T06:14:40.780Z,21.15
2017-11-19T06:17:07.849Z,19.58
2017-11-19T06:19:35.012Z,21.75
2017-11-19T06:22:02.154Z,21.25
2017-11-19T06:24:28.984Z,20.90
2017-11-19T06:26:55.802Z,24.87
2017-11-19T06:29:22.628Z,21.73
2017-11-19T06:31:49.487Z,21.80
2017-11-19T06:34:16.570Z,23.20
2017-11-19T06:36:43.453Z,22.67
2017-11-19T06:39:10.268Z,18.17
2017-11-19T06:41:37.412Z,21.93
2017-11-19T06:44:04.282Z,19.12
2017-11-19T06:46:31.156Z,19.42
2017-11-19T06:48:57.988Z,20.45
2017-11-19T06:51:24.872Z,24.00
2017-11-19T06:53:51.737Z,26.30
2017-11-19T06:56:18.617Z,25.62
2017-11-19T06:58:45.448Z,22.10
2017-11-19T07:01:12.297Z,23.47
2017-11-19T07:03:39.131Z,23.53
2017-11-19T07:06:05.965Z,21.20
2017-11-19T07:08:32.818Z,23.67
2017-11-19T07:10:59.661Z,22.02
2017-11-19T07:13:26.497Z,24.65
2017-11-19T07:15:53.346Z,29.85
2017-11-19T07:18:20.469Z,23.00
2017-11-19T07:20:47.618Z,19.65
2017-11-19T07:23:14.478Z,22.85
2017-11-19T07:25:41.293Z,27.10
2017-11-19T07:28:08.138Z,20.15
2017-11-19T07:30:35.293Z,22.47
2017-11-19T07:33:02.176Z,22.48
2017-11-19T07:35:29.107Z,20.10
2017-11-19T07:37:56.233Z,21.62
2017-11-19T07:40:23.113Z,21.30
2017-11-19T07:42:50.006Z,26.02
2017-11-19T07:45:16.881Z,21.90
2017-11-19T07:47:43.712Z,24.42
2017-11-19T07:50:10.612Z,27.05
2017-11-19T07:52:37.811Z,22.00
2017-11-19T07:55:04.716Z,18.60
2017-11-19T07:57:31.902Z,21.02
2017-11-19T07:59:59.158Z,20.42
2017-11-19T08:02:25.992Z,22.15
2017-11-19T08:04:52.890Z,26.10
2017-11-19T08:07:19.745Z,25.65
2017-11-19T08:09:46.832Z,35.85
2017-11-19T08:12:13.709Z,20.30
2017-11-19T08:14:40.562Z,22.15
2017-11-19T08:17:07.449Z,20.50
2017-11-19T08:19:34.386Z,22.35
2017-11-19T08:22:01.213Z,19.27
2017-11-19T08:24:28.047Z,23.42
2017-11-19T08:26:54.939Z,18.98
2017-11-19T08:29:21.842Z,22.50
2017-11-19T08:31:48.724Z,22.50
2017-11-19T08:34:15.614Z,22.47
2017-11-19T08:36:42.487Z,17.02
2017-11-19T08:39:09.390Z,25.30
2017-11-19T08:41:36.237Z,19.27
2017-11-19T08:44:03.053Z,21.30
2017-11-19T08:46:29.881Z,18.73
2017-11-19T08:48:56.758Z,21.65
2017-11-19T08:51:23.610Z,21.17
2017-11-19T08:53:50.724Z,18.15
2017-11-19T08:56:17.598Z,19.95
2017-11-19T08:58:44.425Z,20.12
2017-11-19T09:01:11.566Z,22.73
2017-11-19T09:03:38.424Z,16.80
2017-11-19T09:06:05.241Z,18.55
2017-11-19T09:08:32.081Z,21.87
2017-11-19T09:10:58.961Z,22.10
2017-11-19T09:13:26.089Z,23.75
2017-11-19T09:15:53.144Z,21.45
2017-11-19T09:18:19.980Z,25.73
2017-11-19T09:20:46.818Z,22.73
2017-11-19T09:23:14.572Z,22.50
2017-11-19T09:25:41.436Z,18.42
2017-11-19T09:28:08.779Z,22.05
2017-11-19T09:30:35.605Z,21.15
2017-11-19T09:33:02.450Z,18.02
2017-11-19T09:35:30.462Z,22.62
2017-11-19T09:37:57.244Z,21.75
2017-11-19T09:40:26.808Z,21.58
2017-11-19T09:42:55.295Z,20.35
2017-11-19T09:45:22.157Z,23.38
2017-11-19T09:47:49.012Z,23.23
2017-11-19T09:50:15.825Z,26.75
2017-11-19T09:52:42.679Z,24.60
2017-11-19T09:55:09.562Z,27.08
2017-11-19T09:57:36.435Z,34.33
2017-11-19T10:00:03.697Z,26.58
2017-11-19T10:02:30.832Z,24.03
2017-11-19T10:04:57.698Z,26.90
2017-11-19T10:07:24.518Z,32.67
2017-11-19T10:09:51.387Z,26.67
2017-11-19T10:12:18.513Z,28.40
2017-11-19T10:17:29.042Z,25.77
2017-11-19T10:19:55.885Z,25.33
2017-11-19T10:22:22.671Z,28.98
2017-11-19T10:24:49.524Z,26.37
2017-11-19T10:27:16.315Z,29.87
2017-11-19T10:29:43.114Z,29.48
2017-11-19T10:32:09.946Z,25.95
2017-11-19T10:34:36.755Z,25.37
2017-11-19T10:37:03.555Z,32.83
2017-11-19T10:39:30.409Z,31.50
2017-11-19T10:41:57.236Z,32.67
2017-11-19T10:44:24.068Z,38.85
2017-11-19T10:46:50.856Z,36.37
2017-11-19T10:49:17.947Z,29.80
2017-11-19T10:51:44.747Z,34.83
2017-11-19T10:54:11.544Z,41.05
2017-11-19T10:56:38.355Z,38.20
2017-11-19T10:59:05.169Z,29.53
2017-11-19T11:01:32.263Z,33.85
2017-11-19T11:03:59.068Z,31.42
2017-11-19T11:06:26.167Z,38.35
2017-11-19T11:08:53.308Z,39.13
2017-11-19T11:11:20.457Z,30.15
2017-11-19T11:13:47.316Z,32.40
2017-11-19T11:16:14.465Z,30.90
2017-11-19T11:18:41.810Z,35.22
2017-11-19T11:21:08.849Z,33.40
2017-11-19T11:23:35.895Z,28.43
2017-11-19T11:26:02.949Z,30.57
2017-11-19T11:28:29.756Z,30.60
2017-11-19T11:30:56.575Z,29.20
2017-11-19T11:33:23.388Z,31.08
2017-11-19T11:35:50.526Z,28.08
2017-11-19T11:38:17.311Z,27.42
2017-11-19T11:40:44.411Z,26.87
2017-11-19T11:43:11.569Z,29.48
2017-11-19T11:45:38.376Z,30.98
2017-11-19T11:48:05.253Z,23.62
2017-11-19T11:50:32.405Z,23.90
2017-11-19T11:52:59.219Z,25.42
2017-11-19T11:55:26.027Z,26.02
2017-11-19T11:57:52.849Z,27.17
2017-11-19T12:00:19.981Z,24.77
2017-11-19T12:02:47.134Z,21.83
2017-11-19T12:05:13.922Z,25.40
2017-11-19T12:07:41.029Z,22.20
2017-11-19T12:10:08.073Z,25.42
2017-11-19T12:12:34.881Z,26.12
2017-11-19T12:15:02.065Z,18.95
2017-11-19T12:17:28.851Z,20.90
2017-11-19T12:19:55.956Z,24.02
2017-11-19T12:22:22.784Z,25.92
2017-11-19T12:24:49.568Z,17.37
2017-11-19T12:27:16.416Z,21.67
2017-11-19T12:29:43.222Z,21.90
2017-11-19T12:32:10.033Z,22.92
2017-11-19T12:34:36.893Z,22.00
2017-11-19T12:37:03.679Z,18.43
2017-11-19T12:39:30.513Z,21.15
2017-11-19T12:41:57.360Z,24.02
2017-11-19T12:44:24.161Z,20.10
2017-11-19T12:46:51.333Z,18.15
2017-11-19T12:49:18.590Z,21.02
2017-11-19T12:51:45.396Z,19.12
2017-11-19T12:54:12.219Z,18.75
2017-11-19T12:56:39.037Z,21.10
2017-11-19T12:59:14.004Z,18.62
2017-11-19T13:01:42.837Z,20.42
2017-11-19T13:04:09.989Z,20.55
2017-11-19T13:06:36.840Z,21.12
2017-11-19T13:09:04.116Z,27.87
2017-11-19T13:11:31.233Z,21.60
2017-11-19T13:13:58.066Z,17.17
2017-11-19T13:16:24.905Z,20.45
2017-11-19T13:18:51.718Z,18.75
2017-11-19T13:21:18.788Z,21.23
2017-11-19T13:23:46.169Z,19.08
2017-11-19T13:26:13.065Z,23.05
2017-11-19T13:28:40.593Z,18.10
2017-11-19T13:31:08.018Z,21.42
2017-11-19T13:33:36.177Z,20.40
2017-11-19T13:36:03.649Z,19.45
2017-11-19T13:38:31.600Z,22.02
2017-11-19T13:41:00.303Z,22.20
2017-11-19T13:43:27.681Z,19.63
2017-11-19T13:45:55.008Z,18.08
2017-11-19T13:48:22.692Z,19.55
2017-11-19T13:50:50.207Z,18.23
2017-11-19T13:53:18.045Z,25.15
2017-11-19T13:55:45.767Z,22.45
2017-11-19T13:58:13.326Z,21.33
2017-11-19T14:00:40.989Z,18.90
2017-11-19T14:03:08.352Z,25.10
2017-11-19T14:05:35.153Z,28.30
2017-11-19T14:08:02.309Z,25.33
2017-11-19T14:10:29.125Z,24.85
2017-11-19T14:12:55.953Z,22.75
2017-11-19T14:15:23.082Z,21.08
2017-11-19T14:17:49.904Z,23.30
2017-11-19T14:20:16.972Z,21.27
2017-11-19T14:22:43.818Z,21.15
2017-11-19T14:25:11.053Z,19.95
2017-11-19T14:27:37.852Z,21.83
2017-11-19T14:30:04.731Z,19.12
2017-11-19T14:32:31.799Z,18.40
2017-11-19T14:34:58.803Z,21.85
2017-11-19T14:37:25.621Z,17.65
2017-11-19T14:39:52.741Z,19.77
2017-11-19T14:42:19.530Z,21.42
2017-11-19T14:44:46.396Z,17.37
2017-11-19T14:47:13.204Z,15.80
2017-11-19T14:49:40.022Z,17.90
2017-11-19T14:52:07.159Z,16.23
2017-11-19T14:54:34.213Z,21.25
2017-11-19T14:57:01.365Z,23.50
2017-11-19T14:59:28.168Z,17.98
2017-11-19T15:01:55.254Z,17.07
2017-11-19T15:04:22.047Z,17.70
2017-11-19T15:06:48.906Z,17.93
2017-11-19T15:09:15.688Z,19.60
2017-11-19T15:11:42.510Z,19.30
2017-11-19T15:14:09.317Z,19.65
2017-11-19T15:16:36.153Z,18.98
2017-11-19T15:19:02.994Z,19.77
2017-11-19T15:21:30.097Z,25.48
2017-11-19T15:23:56.958Z,15.77
2017-11-19T15:26:23.781Z,13.85
2017-11-19T15:28:50.640Z,13.95
2017-11-19T15:31:17.464Z,13.70
2017-11-19T15:33:44.276Z,16.50
2017-11-19T15:36:11.464Z,18.27
2017-11-19T15:38:38.272Z,14.35
2017-11-19T15:41:05.067Z,17.92
2017-11-19T15:43:31.892Z,18.20
2017-11-19T15:45:58.682Z,14.70
2017-11-19T15:48:25.497Z,14.77
2017-11-19T15:50:52.381Z,20.43
2017-11-19T15:53:19.163Z,16.00
2017-11-19T15:55:45.948Z,14.68
2017-11-19T15:58:12.800Z,20.85
2017-11-19T16:00:39.897Z,15.70
2017-11-19T16:03:06.703Z,18.27
2017-11-19T16:05:33.515Z,15.13
2017-11-19T16:08:00.393Z,14.35
2017-11-19T16:10:27.467Z,17.10
2017-11-19T16:12:54.621Z,12.32
2017-11-19T16:15:21.776Z,17.53
2017-11-19T16:17:48.583Z,11.38
2017-11-19T16:20:15.433Z,12.75
2017-11-19T16:22:42.273Z,12.60
2017-11-19T16:25:09.119Z,11.77
2017-11-19T16:27:35.939Z,13.00
2017-11-19T16:30:03.036Z,11.15
2017-11-19T16:32:29.828Z,17.40
2017-11-19T16:34:56.672Z,13.17
2017-11-19T16:37:23.489Z,11.48
2017-11-19T16:39:50.305Z,12.18
2017-11-19T16:42:17.111Z,13.13
2017-11-19T16:44:43.948Z,16.27
2017-11-19T16:47:10.788Z,14.60
2017-11-19T16:49:37.628Z,12.68
2017-11-19T16:52:04.440Z,10.85
2017-11-19T16:54:31.224Z,11.35
2017-11-19T16:56:58.031Z,14.27
2017-11-19T16:59:25.158Z,13.00
2017-11-19T17:01:51.986Z,11.07
2017-11-19T17:04:18.815Z,15.40
2017-11-19T17:06:45.615Z,12.37
2017-11-19T17:09:12.456Z,16.00
2017-11-19T17:11:39.571Z,16.03
2017-11-19T17:14:06.393Z,13.40
2017-11-19T17:16:33.176Z,15.25
2017-11-19T17:19:00.309Z,13.30
2017-11-19T17:21:27.136Z,16.83
2017-11-19T17:23:53.945Z,17.95
2017-11-19T17:26:20.781Z,16.85
2017-11-19T17:28:47.611Z,12.00
2017-11-19T17:31:14.395Z,11.40
2017-11-19T17:33:41.463Z,17.75
2017-11-19T17:36:08.516Z,14.80
2017-11-19T17:38:35.345Z,18.52
2017-11-19T17:41:02.161Z,15.27
2017-11-19T17:43:28.961Z,15.80
2017-11-19T17:45:56.098Z,14.10
2017-11-19T17:48:22.903Z,12.57
2017-11-19T17:50:49.729Z,13.30
2017-11-19T17:53:16.545Z,12.20
2017-11-19T17:55:43.415Z,12.10
2017-11-19T17:58:10.699Z,11.20
2017-11-19T18:00:37.763Z,14.80
2017-11-19T18:03:04.617Z,19.33
2017-11-19T18:05:31.432Z,11.20
2017-11-19T18:07:58.504Z,12.43
2017-11-19T18:10:25.361Z,10.55
2017-11-19T18:12:52.194Z,11.30
2017-11-19T18:15:19.033Z,10.93
2017-11-19T18:17:45.845Z,13.45
2017-11-19T18:20:12.624Z,12.65
2017-11-19T18:22:39.659Z,13.15
2017-11-19T18:25:06.482Z,11.23
2017-11-19T18:27:33.304Z,11.95
2017-11-19T18:30:00.348Z,10.98
2017-11-19T18:32:27.156Z,17.58
2017-11-19T18:34:53.982Z,16.15
2017-11-19T18:37:20.763Z,15.20
2017-11-19T18:39:47.580Z,15.68
2017-11-19T18:42:14.364Z,13.47
2017-11-19T18:44:41.148Z,12.52
2017-11-19T18:47:07.993Z,11.50
2017-11-19T18:49:34.801Z,14.87
2017-11-19T18:52:01.628Z,16.42
2017-11-19T18:54:28.481Z,12.43
2017-11-19T18:56:55.275Z,14.50
2017-11-19T18:59:22.076Z,21.27
2017-11-19T19:01:48.916Z,13.70
2017-11-19T19:04:15.743Z,11.50
2017-11-19T19:06:42.556Z,14.43
2017-11-19T19:09:09.360Z,12.98
2017-11-19T19:11:36.147Z,11.93
2017-11-19T19:14:02.939Z,13.83
2017-11-19T19:16:30.005Z,11.85
2017-11-19T19:18:56.821Z,11.82
2017-11-19T19:21:23.869Z,9.70
2017-11-19T19:23:50.705Z,11.82
2017-11-19T19:26:17.491Z,11.43
2017-11-19T19:28:44.626Z,12.73
2017-11-19T19:32:17.959Z,15.95
2017-11-19T19:34:44.740Z,15.75
2017-11-19T19:37:11.829Z,12.65
2017-11-19T19:39:38.669Z,12.98
2017-11-19T19:42:05.711Z,17.90
2017-11-19T19:44:32.764Z,11.12
2017-11-19T19:46:59.571Z,13.10
2017-11-19T19:49:28.426Z,16.05
2017-11-19T19:51:55.600Z,9.55
2017-11-19T19:54:22.869Z,11.32
2017-11-19T19:56:50.494Z,13.50
2017-11-19T19:59:19.533Z,15.35
2017-11-19T20:01:47.120Z,13.70
2017-11-19T20:04:14.945Z,13.68
2017-11-19T20:06:42.938Z,12.02
2017-11-19T20:09:11.135Z,12.13
2017-11-19T20:11:38.476Z,15.25
2017-11-19T20:14:06.065Z,13.80
2017-11-19T20:16:34.262Z,12.90
2017-11-19T20:19:01.805Z,13.25
2017-11-19T20:21:29.562Z,11.77
2017-11-19T20:23:58.158Z,11.95
2017-11-19T20:26:25.428Z,11.10
2017-11-19T20:28:53.563Z,14.27
2017-11-19T20:31:20.772Z,10.97
2017-11-19T20:33:49.308Z,14.52
2017-11-19T20:36:16.937Z,28.10
2017-11-19T20:38:45.018Z,14.93
2017-11-19T20:41:12.750Z,14.10
2017-11-19T20:43:40.154Z,13.73
2017-11-19T20:46:07.490Z,13.95
2017-11-19T20:48:35.118Z,13.77
2017-11-19T20:51:03.549Z,11.82
2017-11-19T20:53:31.133Z,11.57
2017-11-19T20:55:58.488Z,14.05
2017-11-19T20:58:26.424Z,11.98
2017-11-19T21:00:54.251Z,12.85
2017-11-19T21:03:22.345Z,14.30
2017-11-19T21:05:50.217Z,26.08
2017-11-19T21:08:18.558Z,17.90
2017-11-19T21:10:46.741Z,14.07
2017-11-19T21:13:15.128Z,15.27
2017-11-19T21:15:43.034Z,13.93
2017-11-19T21:18:11.184Z,10.20
2017-11-19T21:20:39.729Z,12.65
2017-11-19T21:23:09.056Z,12.52
2017-11-19T21:25:37.764Z,11.70
2017-11-19T21:28:05.643Z,12.40
2017-11-19T21:30:33.492Z,9.30
2017-11-19T21:33:00.956Z,12.18
2017-11-19T21:35:28.821Z,13.15
2017-11-19T21:37:57.759Z,11.73
2017-11-19T21:40:25.828Z,12.00
2017-11-19T21:42:54.399Z,13.68
2017-11-19T21:45:23.215Z,15.20
2017-11-19T21:47:52.188Z,11.30
2017-11-19T21:50:19.417Z,11.65
2017-11-19T21:52:46.324Z,13.48
2017-11-19T21:55:13.136Z,14.98
2017-11-19T21:57:40.237Z,13.05
2017-11-19T22:00:07.409Z,14.45
2017-11-19T22:02:34.260Z,15.77
2017-11-19T22:05:01.036Z,13.83
2017-11-19T22:07:27.925Z,12.70
2017-11-19T22:09:54.708Z,14.60
2017-11-19T22:12:21.533Z,13.57
2017-11-19T22:14:48.667Z,12.43
2017-11-19T22:17:15.716Z,15.32
2017-11-19T22:19:42.533Z,12.75
2017-11-19T22:22:09.820Z,10.77
2017-11-19T22:24:36.627Z,12.15
2017-11-19T22:27:03.469Z,11.30
2017-11-19T22:29:30.313Z,12.93
2017-11-19T22:31:57.129Z,13.98
2017-11-19T22:34:23.948Z,11.73
2017-11-19T22:36:50.767Z,13.93
2017-11-19T22:39:17.594Z,14.20
2017-11-19T22:41:44.390Z,15.32
2017-11-19T22:44:11.249Z,15.38
2017-11-19T22:46:38.023Z,11.50
2017-11-19T22:49:04.819Z,10.30
2017-11-19T22:51:31.802Z,11.43
2017-11-19T22:53:58.580Z,12.05
2017-11-19T22:56:25.397Z,14.02
2017-11-19T22:58:52.324Z,10.48
2017-11-19T23:01:19.115Z,13.80
2017-11-19T23:03:46.247Z,11.60
2017-11-19T23:06:13.101Z,11.00
2017-11-19T23:08:40.152Z,13.02
2017-11-19T23:11:07.294Z,12.20
2017-11-19T23:13:34.341Z,10.97
2017-11-19T23:16:01.135Z,16.23
2017-11-19T23:18:27.915Z,10.18
2017-11-19T23:20:54.772Z,14.30
2017-11-19T23:23:24.896Z,9.25
2017-11-19T23:25:54.194Z,11.35
2017-11-19T23:28:24.798Z,18.13
2017-11-19T23:30:56.902Z,15.25
2017-11-19T23:33:26.685Z,11.30
2017-11-19T23:35:55.167Z,15.10
2017-11-19T23:38:24.868Z,12.48
2017-11-19T23:40:53.685Z,13.52
2017-11-19T23:43:20.508Z,9.63
2017-11-19T23:45:51.778Z,15.32
2017-11-19T23:48:20.226Z,12.98
2017-11-19T23:50:50.008Z,14.30
2017-11-19T23:53:16.837Z,11.75
2017-11-19T23:55:43.676Z,11.80
2017-11-19T23:58:10.490Z,12.60
